Datum - Zeit
Döttingen
TemperaturTaupunktFeuchteSolar Wind aus
Richtung
Windböenaus
Richtung
Luftdruck
(QFF)
RegenRegen
Stärke
16.07.2019 - 00.00Uhr17.4 °C13.4 °C78 %0.0 W/m²0.2 km/hNorden1.8 km/hNorden1015.8 hPa0.0 mm0.0 mm/h
16.07.2019 - 00.05Uhr17.1 °C13.3 °C79 %0.0 W/m²0.0 km/hNorden0.0 km/hNorden1015.9 hPa0.0 mm0.0 mm/h
16.07.2019 - 00.10Uhr17.0 °C13.2 °C79 %0.0 W/m²0.0 km/hNorden0.0 km/hNorden1015.9 hPa0.0 mm0.0 mm/h
16.07.2019 - 00.15Uhr17.1 °C13.2 °C78 %0.0 W/m²0.0 km/hNorden0.0 km/hNorden1015.8 hPa0.0 mm0.0 mm/h
16.07.2019 - 00.20Uhr17.1 °C13.2 °C78 %0.0 W/m²0.8 km/hNorden4.0 km/hNorden1015.9 hPa0.0 mm0.0 mm/h
16.07.2019 - 00.25Uhr17.5 °C13.2 °C76 %0.0 W/m²1.3 km/hNorden4.0 km/hNorden1016.0 hPa0.0 mm0.0 mm/h
16.07.2019 - 00.30Uhr17.6 °C13.1 °C75 %0.0 W/m²0.4 km/hNorden1.8 km/hNorden1016.0 hPa0.0 mm0.0 mm/h
16.07.2019 - 00.35Uhr17.2 °C13.0 °C77 %0.0 W/m²0.3 km/hNorden1.8 km/hNorden1016.0 hPa0.0 mm0.0 mm/h
16.07.2019 - 00.40Uhr16.8 °C12.9 °C78 %0.0 W/m²3.2 km/hNorden8.3 km/hNordosten1016.1 hPa0.0 mm0.0 mm/h
16.07.2019 - 00.45Uhr16.2 °C12.7 °C80 %0.0 W/m²2.6 km/hOst-NO8.3 km/hOst-NO1016.1 hPa0.0 mm0.0 mm/h
16.07.2019 - 00.50Uhr15.8 °C12.6 °C82 %0.0 W/m²1.2 km/hOst-NO4.0 km/hOst-NO1016.1 hPa0.0 mm0.0 mm/h
16.07.2019 - 00.55Uhr15.8 °C12.8 °C82 %0.0 W/m²0.2 km/hOst-NO1.8 km/hOst-NO1016.1 hPa0.0 mm0.0 mm/h
16.07.2019 - 01.00Uhr15.8 °C12.8 °C82 %0.0 W/m²2.0 km/hOst-NO5.8 km/hOst-NO1016.1 hPa0.0 mm0.0 mm/h
16.07.2019 - 01.05Uhr15.8 °C12.9 °C83 %0.0 W/m²1.5 km/hOst-NO4.0 km/hOst-NO1016.2 hPa0.0 mm0.0 mm/h
16.07.2019 - 01.10Uhr15.8 °C12.8 °C83 %0.0 W/m²1.9 km/hOst-NO5.8 km/hOst-NO1016.1 hPa0.0 mm0.0 mm/h
16.07.2019 - 01.15Uhr15.7 °C12.7 °C83 %0.0 W/m²2.7 km/hOst-NO5.8 km/hOst-NO1016.2 hPa0.0 mm0.0 mm/h
16.07.2019 - 01.20Uhr15.8 °C12.7 °C82 %0.0 W/m²0.0 km/hOst-NO0.0 km/hNorden1016.1 hPa0.0 mm0.0 mm/h
16.07.2019 - 01.25Uhr15.8 °C12.7 °C82 %0.0 W/m²2.6 km/hOst-NO5.8 km/hOst-NO1016.2 hPa0.0 mm0.0 mm/h
16.07.2019 - 01.30Uhr15.5 °C12.7 °C83 %0.0 W/m²4.2 km/hOst-NO8.3 km/hOst-NO1016.2 hPa0.0 mm0.0 mm/h
16.07.2019 - 01.35Uhr15.3 °C12.7 °C84 %0.0 W/m²4.7 km/hOst-NO8.3 km/hOst-NO1016.2 hPa0.0 mm0.0 mm/h
16.07.2019 - 01.40Uhr15.2 °C12.7 °C85 %0.0 W/m²4.3 km/hOsten8.3 km/hOsten1016.2 hPa0.0 mm0.0 mm/h
16.07.2019 - 01.45Uhr15.4 °C12.7 °C84 %0.0 W/m²4.8 km/hOsten8.3 km/hOsten1016.2 hPa0.0 mm0.0 mm/h
16.07.2019 - 01.50Uhr15.3 °C12.6 °C84 %0.0 W/m²3.1 km/hOsten10.1 km/hOsten1016.2 hPa0.0 mm0.0 mm/h
16.07.2019 - 01.55Uhr14.9 °C12.5 °C85 %0.0 W/m²0.0 km/hOsten0.0 km/hNorden1016.2 hPa0.0 mm0.0 mm/h
16.07.2019 - 02.00Uhr14.9 °C12.6 °C86 %0.0 W/m²0.5 km/hOsten1.8 km/hOsten1016.2 hPa0.0 mm0.0 mm/h
16.07.2019 - 02.05Uhr14.7 °C12.4 °C86 %0.0 W/m²2.1 km/hOsten8.3 km/hOsten1016.2 hPa0.0 mm0.0 mm/h
16.07.2019 - 02.10Uhr14.4 °C12.2 °C86 %0.0 W/m²2.7 km/hOsten4.0 km/hOsten1016.2 hPa0.0 mm0.0 mm/h
16.07.2019 - 02.15Uhr14.3 °C12.2 °C87 %0.0 W/m²1.2 km/hOsten4.0 km/hOsten1016.2 hPa0.0 mm0.0 mm/h
16.07.2019 - 02.20Uhr14.4 °C12.3 °C87 %0.0 W/m²2.2 km/hOsten4.0 km/hOsten1016.2 hPa0.0 mm0.0 mm/h
16.07.2019 - 02.25Uhr14.2 °C12.1 °C87 %0.0 W/m²1.2 km/hOsten4.0 km/hOsten1016.2 hPa0.0 mm0.0 mm/h
16.07.2019 - 02.30Uhr14.1 °C12.0 °C87 %0.0 W/m²0.0 km/hOsten0.0 km/hNorden1016.3 hPa0.0 mm0.0 mm/h
16.07.2019 - 02.35Uhr14.0 °C12.0 °C88 %0.0 W/m²0.0 km/hOsten0.0 km/hNorden1016.4 hPa0.0 mm0.0 mm/h
16.07.2019 - 02.40Uhr14.2 °C12.1 °C87 %0.0 W/m²1.0 km/hOsten4.0 km/hOsten1016.3 hPa0.0 mm0.0 mm/h
16.07.2019 - 02.45Uhr14.3 °C12.2 °C87 %0.0 W/m²0.4 km/hOsten1.8 km/hOsten1016.4 hPa0.0 mm0.0 mm/h
16.07.2019 - 02.50Uhr14.3 °C12.2 °C87 %0.0 W/m²0.0 km/hOsten0.0 km/hNorden1016.4 hPa0.0 mm0.0 mm/h
16.07.2019 - 02.55Uhr14.0 °C11.9 °C87 %0.0 W/m²1.7 km/hOsten4.0 km/hOsten1016.4 hPa0.0 mm0.0 mm/h
16.07.2019 - 03.00Uhr13.7 °C11.7 °C87 %0.0 W/m²1.1 km/hOsten4.0 km/hOsten1016.4 hPa0.0 mm0.0 mm/h
16.07.2019 - 03.05Uhr13.8 °C11.8 °C88 %0.0 W/m²0.5 km/hOsten1.8 km/hOsten1016.4 hPa0.0 mm0.0 mm/h
16.07.2019 - 03.10Uhr14.0 °C12.0 °C88 %0.0 W/m²0.9 km/hOsten4.0 km/hOsten1016.4 hPa0.0 mm0.0 mm/h
16.07.2019 - 03.15Uhr13.8 °C11.8 °C88 %0.0 W/m²0.0 km/hOsten0.0 km/hNorden1016.5 hPa0.0 mm0.0 mm/h
16.07.2019 - 03.20Uhr13.6 °C11.6 °C87 %0.0 W/m²0.0 km/hOsten0.0 km/hNorden1016.5 hPa0.0 mm0.0 mm/h
16.07.2019 - 03.25Uhr13.7 °C11.7 °C88 %0.0 W/m²2.1 km/hOsten8.3 km/hOsten1016.5 hPa0.0 mm0.0 mm/h
16.07.2019 - 03.30Uhr13.8 °C11.8 °C88 %0.0 W/m²1.5 km/hOsten4.0 km/hOsten1016.5 hPa0.0 mm0.0 mm/h
16.07.2019 - 03.35Uhr13.9 °C11.9 °C88 %0.0 W/m²0.0 km/hOsten0.0 km/hNorden1016.6 hPa0.0 mm0.0 mm/h
16.07.2019 - 03.40Uhr13.9 °C11.8 °C88 %0.0 W/m²0.0 km/hOsten0.0 km/hNorden1016.5 hPa0.0 mm0.0 mm/h
16.07.2019 - 03.45Uhr13.9 °C11.8 °C88 %0.0 W/m²0.0 km/hOsten0.0 km/hNorden1016.6 hPa0.0 mm0.0 mm/h
16.07.2019 - 03.50Uhr13.9 °C11.8 °C88 %0.0 W/m²0.0 km/hOsten0.0 km/hNorden1016.6 hPa0.0 mm0.0 mm/h
16.07.2019 - 03.55Uhr13.7 °C11.7 °C88 %0.0 W/m²0.0 km/hOsten0.0 km/hNorden1016.6 hPa0.0 mm0.0 mm/h
16.07.2019 - 04.00Uhr13.5 °C11.6 °C88 %0.0 W/m²0.0 km/hOsten0.0 km/hNorden1016.5 hPa0.0 mm0.0 mm/h
16.07.2019 - 04.05Uhr13.3 °C11.4 °C88 %0.0 W/m²0.0 km/hOsten0.0 km/hNorden1016.5 hPa0.0 mm0.0 mm/h
16.07.2019 - 04.10Uhr13.3 °C11.4 °C88 %0.0 W/m²0.0 km/hOsten0.0 km/hNorden1016.5 hPa0.0 mm0.0 mm/h
16.07.2019 - 04.15Uhr13.5 °C11.6 °C88 %0.0 W/m²0.2 km/hOsten1.8 km/hOsten1016.5 hPa0.0 mm0.0 mm/h
16.07.2019 - 04.20Uhr13.6 °C11.6 °C88 %0.0 W/m²0.2 km/hOsten1.8 km/hOsten1016.5 hPa0.0 mm0.0 mm/h
16.07.2019 - 04.25Uhr13.4 °C11.5 °C88 %0.0 W/m²0.2 km/hOsten1.8 km/hOsten1016.5 hPa0.0 mm0.0 mm/h
16.07.2019 - 04.30Uhr13.2 °C11.3 °C88 %0.0 W/m²0.0 km/hOsten0.0 km/hNorden1016.5 hPa0.0 mm0.0 mm/h
16.07.2019 - 04.35Uhr13.3 °C11.4 °C88 %0.0 W/m²0.3 km/hOsten1.8 km/hOsten1016.5 hPa0.0 mm0.0 mm/h
16.07.2019 - 04.40Uhr13.1 °C11.2 °C88 %0.0 W/m²0.0 km/hOsten0.0 km/hNorden1016.6 hPa0.0 mm0.0 mm/h
16.07.2019 - 04.45Uhr13.1 °C11.2 °C88 %0.0 W/m²0.0 km/hOsten0.0 km/hNorden1016.5 hPa0.0 mm0.0 mm/h
16.07.2019 - 04.50Uhr13.1 °C11.2 °C88 %0.0 W/m²0.0 km/hOsten0.0 km/hNorden1016.5 hPa0.0 mm0.0 mm/h
16.07.2019 - 04.55Uhr13.1 °C11.2 °C88 %0.0 W/m²0.6 km/hOsten1.8 km/hOsten1016.5 hPa0.0 mm0.0 mm/h
16.07.2019 - 05.00Uhr13.0 °C11.1 °C88 %0.0 W/m²0.0 km/hOsten0.0 km/hNorden1016.5 hPa0.0 mm0.0 mm/h
16.07.2019 - 05.05Uhr12.9 °C11.0 °C88 %0.0 W/m²0.5 km/hOsten1.8 km/hOsten1016.5 hPa0.0 mm0.0 mm/h
16.07.2019 - 05.10Uhr12.9 °C11.0 °C88 %0.0 W/m²1.0 km/hOsten4.0 km/hOsten1016.5 hPa0.0 mm0.0 mm/h
16.07.2019 - 05.15Uhr12.8 °C10.9 °C88 %0.0 W/m²1.6 km/hOsten4.0 km/hOsten1016.6 hPa0.0 mm0.0 mm/h
16.07.2019 - 05.20Uhr12.8 °C10.9 °C88 %0.0 W/m²0.0 km/hOsten0.0 km/hNorden1016.5 hPa0.0 mm0.0 mm/h
16.07.2019 - 05.25Uhr12.7 °C10.8 °C88 %0.0 W/m²1.7 km/hOsten8.3 km/hOsten1016.5 hPa0.0 mm0.0 mm/h
16.07.2019 - 05.30Uhr12.6 °C10.7 °C88 %0.0 W/m²0.3 km/hOsten1.8 km/hOsten1016.5 hPa0.0 mm0.0 mm/h
16.07.2019 - 05.35Uhr12.6 °C10.7 °C88 %0.0 W/m²0.3 km/hOsten1.8 km/hOsten1016.5 hPa0.0 mm0.0 mm/h
16.07.2019 - 05.40Uhr12.5 °C10.6 °C88 %0.0 W/m²0.5 km/hOsten1.8 km/hOsten1016.5 hPa0.0 mm0.0 mm/h
16.07.2019 - 05.45Uhr12.4 °C10.5 °C88 %5.0 W/m²1.1 km/hOsten4.0 km/hOsten1016.4 hPa0.0 mm0.0 mm/h
16.07.2019 - 05.50Uhr12.4 °C10.5 °C88 %7.0 W/m²1.0 km/hOsten4.0 km/hOsten1016.5 hPa0.0 mm0.0 mm/h
16.07.2019 - 05.55Uhr12.4 °C10.5 °C88 %9.0 W/m²1.8 km/hOsten4.0 km/hOsten1016.5 hPa0.0 mm0.0 mm/h
16.07.2019 - 06.00Uhr12.6 °C10.7 °C88 %11.0 W/m²0.5 km/hOsten1.8 km/hOsten1016.5 hPa0.0 mm0.0 mm/h
16.07.2019 - 06.05Uhr12.6 °C10.7 °C88 %14.0 W/m²0.0 km/hOsten0.0 km/hNorden1016.5 hPa0.0 mm0.0 mm/h
16.07.2019 - 06.10Uhr12.5 °C10.6 °C88 %16.0 W/m²0.0 km/hOsten0.0 km/hNorden1016.5 hPa0.0 mm0.0 mm/h
16.07.2019 - 06.15Uhr12.4 °C10.5 °C88 %18.0 W/m²0.2 km/hOsten1.8 km/hOsten1016.6 hPa0.0 mm0.0 mm/h
16.07.2019 - 06.20Uhr12.3 °C10.4 °C88 %21.0 W/m²0.0 km/hOsten0.0 km/hNorden1016.6 hPa0.0 mm0.0 mm/h
16.07.2019 - 06.25Uhr12.2 °C10.4 °C89 %23.0 W/m²0.3 km/hOsten1.8 km/hOsten1016.7 hPa0.0 mm0.0 mm/h
16.07.2019 - 06.30Uhr12.2 °C10.4 °C89 %26.0 W/m²0.2 km/hOsten1.8 km/hOsten1016.8 hPa0.0 mm0.0 mm/h
16.07.2019 - 06.35Uhr12.3 °C10.4 °C88 %30.0 W/m²0.7 km/hOsten1.8 km/hOsten1016.8 hPa0.0 mm0.0 mm/h
16.07.2019 - 06.40Uhr12.4 °C10.5 °C88 %32.0 W/m²3.0 km/hOsten8.3 km/hOsten1016.8 hPa0.0 mm0.0 mm/h
16.07.2019 - 06.45Uhr12.6 °C10.7 °C88 %33.0 W/m²1.7 km/hOsten5.8 km/hOsten1016.8 hPa0.0 mm0.0 mm/h
16.07.2019 - 06.50Uhr12.7 °C10.8 °C88 %35.0 W/m²1.4 km/hOsten4.0 km/hOsten1016.8 hPa0.0 mm0.0 mm/h
16.07.2019 - 06.55Uhr12.8 °C10.9 °C88 %37.0 W/m²0.3 km/hOsten1.8 km/hOsten1016.8 hPa0.0 mm0.0 mm/h
16.07.2019 - 07.00Uhr12.8 °C10.9 °C88 %40.0 W/m²0.5 km/hOsten1.8 km/hOsten1016.8 hPa0.0 mm0.0 mm/h
16.07.2019 - 07.05Uhr12.8 °C10.9 °C88 %53.0 W/m²0.0 km/hOsten0.0 km/hNorden1016.8 hPa0.0 mm0.0 mm/h
16.07.2019 - 07.10Uhr13.0 °C11.1 °C88 %125.0 W/m²0.0 km/hOsten0.0 km/hNorden1016.8 hPa0.0 mm0.0 mm/h
16.07.2019 - 07.15Uhr13.2 °C11.3 °C88 %139.0 W/m²0.0 km/hOsten0.0 km/hNorden1016.8 hPa0.0 mm0.0 mm/h
16.07.2019 - 07.20Uhr13.8 °C11.8 °C88 %148.0 W/m²0.2 km/hOsten1.8 km/hOsten1016.9 hPa0.0 mm0.0 mm/h
16.07.2019 - 07.25Uhr14.4 °C12.4 °C88 %158.0 W/m²0.7 km/hOsten4.0 km/hOsten1016.9 hPa0.0 mm0.0 mm/h
16.07.2019 - 07.30Uhr14.9 °C12.9 °C88 %171.0 W/m²0.7 km/hOsten1.8 km/hOsten1016.9 hPa0.0 mm0.0 mm/h
16.07.2019 - 07.35Uhr15.3 °C13.2 °C87 %183.0 W/m²3.2 km/hOsten8.3 km/hNordosten1016.9 hPa0.0 mm0.0 mm/h
16.07.2019 - 07.40Uhr15.5 °C13.1 °C86 %193.0 W/m²4.2 km/hNord-NO8.3 km/hNord-NO1016.9 hPa0.0 mm0.0 mm/h
16.07.2019 - 07.45Uhr15.7 °C13.3 °C85 %213.0 W/m²2.3 km/hNord-NO8.3 km/hNord-NO1016.8 hPa0.0 mm0.0 mm/h
16.07.2019 - 07.50Uhr15.4 °C12.8 °C85 %225.0 W/m²0.7 km/hNord-NO1.8 km/hNord-NO1016.8 hPa0.0 mm0.0 mm/h
16.07.2019 - 07.55Uhr15.4 °C12.8 °C85 %237.0 W/m²2.3 km/hNord-NO5.8 km/hNord-NO1016.8 hPa0.0 mm0.0 mm/h
16.07.2019 - 08.00Uhr15.9 °C13.3 °C85 %250.0 W/m²1.6 km/hNord-NO5.8 km/hNord-NO1016.9 hPa0.0 mm0.0 mm/h
16.07.2019 - 08.05Uhr15.9 °C13.2 °C84 %264.0 W/m²0.8 km/hNord-NO4.0 km/hNord-NO1016.9 hPa0.0 mm0.0 mm/h
16.07.2019 - 08.10Uhr15.9 °C13.1 °C83 %278.0 W/m²2.2 km/hNord-NO5.8 km/hNord-NO1016.9 hPa0.0 mm0.0 mm/h
16.07.2019 - 08.15Uhr15.7 °C13.0 °C84 %290.0 W/m²2.0 km/hNord-NO5.8 km/hNord-NO1016.9 hPa0.0 mm0.0 mm/h
16.07.2019 - 08.20Uhr15.8 °C13.0 °C84 %302.0 W/m²2.5 km/hNord-NO5.8 km/hNord-NO1017.0 hPa0.0 mm0.0 mm/h
16.07.2019 - 08.25Uhr15.9 °C13.0 °C83 %318.0 W/m²3.4 km/hNord-NO5.8 km/hNord-NO1017.0 hPa0.0 mm0.0 mm/h
16.07.2019 - 08.30Uhr16.1 °C13.3 °C84 %329.0 W/m²1.9 km/hNord-NO5.8 km/hNord-NO1017.0 hPa0.0 mm0.0 mm/h
16.07.2019 - 08.35Uhr16.4 °C13.6 °C83 %345.0 W/m²1.4 km/hNord-NO4.0 km/hNord-NO1016.9 hPa0.0 mm0.0 mm/h
16.07.2019 - 08.40Uhr16.4 °C13.3 °C82 %357.0 W/m²2.1 km/hNord-NO5.8 km/hNord-NO1016.9 hPa0.0 mm0.0 mm/h
16.07.2019 - 08.45Uhr16.6 °C13.6 °C82 %371.0 W/m²1.9 km/hNord-NO8.3 km/hNord-NO1016.9 hPa0.0 mm0.0 mm/h
16.07.2019 - 08.50Uhr16.8 °C13.7 °C82 %385.0 W/m²1.6 km/hNord-NO5.8 km/hNord-NO1016.9 hPa0.0 mm0.0 mm/h
16.07.2019 - 08.55Uhr17.0 °C13.8 °C82 %399.0 W/m²3.8 km/hNord-NO8.3 km/hNord-NO1016.8 hPa0.0 mm0.0 mm/h
16.07.2019 - 09.00Uhr17.4 °C14.2 °C81 %413.0 W/m²2.3 km/hNord-NO5.8 km/hNord-NO1016.8 hPa0.0 mm0.0 mm/h
16.07.2019 - 09.05Uhr17.5 °C14.2 °C81 %427.0 W/m²4.7 km/hNord-NO8.3 km/hNord-NO1016.7 hPa0.0 mm0.0 mm/h
16.07.2019 - 09.10Uhr17.7 °C14.3 °C81 %438.0 W/m²4.5 km/hNord-NO8.3 km/hNord-NO1016.7 hPa0.0 mm0.0 mm/h
16.07.2019 - 09.15Uhr17.9 °C14.4 °C80 %452.0 W/m²3.1 km/hNord-NO5.8 km/hNord-NO1016.7 hPa0.0 mm0.0 mm/h
16.07.2019 - 09.20Uhr17.9 °C14.4 °C80 %464.0 W/m²3.9 km/hNord-NO8.3 km/hNord-NO1016.7 hPa0.0 mm0.0 mm/h
16.07.2019 - 09.25Uhr17.8 °C14.2 °C80 %480.0 W/m²2.9 km/hNord-NO5.8 km/hNord-NO1016.7 hPa0.0 mm0.0 mm/h
16.07.2019 - 09.30Uhr17.8 °C14.5 °C81 %492.0 W/m²3.9 km/hNord-NO5.8 km/hNord-NO1016.7 hPa0.0 mm0.0 mm/h
16.07.2019 - 09.35Uhr17.7 °C13.9 °C78 %506.0 W/m²5.6 km/hNordwesten8.3 km/hNordwesten1016.7 hPa0.0 mm0.0 mm/h
16.07.2019 - 09.40Uhr17.9 °C14.5 °C81 %517.0 W/m²2.3 km/hNordwesten8.3 km/hNordwesten1016.7 hPa0.0 mm0.0 mm/h
16.07.2019 - 09.45Uhr18.4 °C14.6 °C78 %536.0 W/m²3.3 km/hNordwesten8.3 km/hWest-NW1016.7 hPa0.0 mm0.0 mm/h
16.07.2019 - 09.50Uhr18.3 °C14.3 °C78 %543.0 W/m²2.1 km/hNordwesten4.0 km/hNordwesten1016.6 hPa0.0 mm0.0 mm/h
16.07.2019 - 09.55Uhr18.4 °C14.5 °C78 %557.0 W/m²4.2 km/hNordwesten8.3 km/hNordwesten1016.6 hPa0.0 mm0.0 mm/h
16.07.2019 - 10.00Uhr19.1 °C15.2 °C78 %564.0 W/m²3.1 km/hNordwesten8.3 km/hNordwesten1016.6 hPa0.0 mm0.0 mm/h
16.07.2019 - 10.05Uhr19.5 °C15.3 °C76 %582.0 W/m²3.7 km/hNordwesten8.3 km/hNordwesten1016.6 hPa0.0 mm0.0 mm/h
16.07.2019 - 10.10Uhr19.7 °C15.0 °C74 %594.0 W/m²2.4 km/hNordwesten8.3 km/hNordwesten1016.5 hPa0.0 mm0.0 mm/h
16.07.2019 - 10.15Uhr19.7 °C15.2 °C75 %606.0 W/m²2.8 km/hNordwesten5.8 km/hOst-NO1016.5 hPa0.0 mm0.0 mm/h
16.07.2019 - 10.20Uhr19.7 °C15.0 °C74 %617.0 W/m²3.5 km/hNordosten8.3 km/hNordosten1016.5 hPa0.0 mm0.0 mm/h
16.07.2019 - 10.25Uhr19.7 °C15.1 °C75 %631.0 W/m²2.4 km/hNordosten5.8 km/hNordosten1016.4 hPa0.0 mm0.0 mm/h
16.07.2019 - 10.30Uhr19.8 °C15.2 °C75 %640.0 W/m²2.0 km/hNordosten5.8 km/hNordosten1016.4 hPa0.0 mm0.0 mm/h
16.07.2019 - 10.35Uhr20.3 °C15.5 °C74 %647.0 W/m²4.1 km/hNord-NW8.3 km/hNorden1016.4 hPa0.0 mm0.0 mm/h
16.07.2019 - 10.40Uhr20.6 °C15.5 °C72 %536.0 W/m²2.6 km/hNord-NW8.3 km/hNord-NW1016.4 hPa0.0 mm0.0 mm/h
16.07.2019 - 10.45Uhr20.6 °C15.4 °C72 %659.0 W/m²4.4 km/hNord-NW12.2 km/hNord-NW1016.4 hPa0.0 mm0.0 mm/h
16.07.2019 - 10.50Uhr21.1 °C15.9 °C72 %464.0 W/m²3.9 km/hNord-NW8.3 km/hNord-NW1016.4 hPa0.0 mm0.0 mm/h
16.07.2019 - 10.55Uhr21.5 °C15.8 °C70 %570.0 W/m²1.2 km/hNord-NW4.0 km/hNord-NW1016.3 hPa0.0 mm0.0 mm/h
16.07.2019 - 11.00Uhr21.5 °C15.7 °C70 %696.0 W/m²4.0 km/hNord-NW8.3 km/hNord-NW1016.3 hPa0.0 mm0.0 mm/h
16.07.2019 - 11.05Uhr21.2 °C15.7 °C71 %680.0 W/m²3.4 km/hNord-NW8.3 km/hNord-NW1016.2 hPa0.0 mm0.0 mm/h
16.07.2019 - 11.10Uhr21.7 °C16.2 °C71 %633.0 W/m²2.6 km/hNord-NW5.8 km/hNord-NW1016.2 hPa0.0 mm0.0 mm/h
16.07.2019 - 11.15Uhr21.8 °C16.0 °C69 %664.0 W/m²3.6 km/hNordwesten8.3 km/hNordwesten1016.2 hPa0.0 mm0.0 mm/h
16.07.2019 - 11.20Uhr21.9 °C15.8 °C68 %731.0 W/m²1.6 km/hNordwesten5.8 km/hNordwesten1016.2 hPa0.0 mm0.0 mm/h
16.07.2019 - 11.25Uhr22.0 °C15.8 °C68 %742.0 W/m²3.5 km/hNordwesten8.3 km/hNordwesten1016.1 hPa0.0 mm0.0 mm/h
16.07.2019 - 11.30Uhr21.9 °C15.8 °C68 %712.0 W/m²2.8 km/hNordwesten5.8 km/hNordwesten1016.1 hPa0.0 mm0.0 mm/h
16.07.2019 - 11.35Uhr22.4 °C16.7 °C70 %761.0 W/m²2.4 km/hNordwesten5.8 km/hNordwesten1016.1 hPa0.0 mm0.0 mm/h
16.07.2019 - 11.40Uhr22.4 °C15.7 °C66 %766.0 W/m²3.6 km/hNordwesten8.3 km/hNordwesten1016.1 hPa0.0 mm0.0 mm/h
16.07.2019 - 11.45Uhr22.4 °C16.1 °C68 %780.0 W/m²3.7 km/hNordwesten8.3 km/hNordwesten1016.2 hPa0.0 mm0.0 mm/h
16.07.2019 - 11.50Uhr22.4 °C15.9 °C67 %749.0 W/m²4.7 km/hNordwesten8.3 km/hNordwesten1016.2 hPa0.0 mm0.0 mm/h
16.07.2019 - 11.55Uhr22.8 °C16.2 °C66 %789.0 W/m²3.9 km/hNordwesten8.3 km/hNordwesten1016.2 hPa0.0 mm0.0 mm/h
16.07.2019 - 12.00Uhr22.9 °C16.0 °C65 %800.0 W/m²2.2 km/hNordwesten5.8 km/hNordwesten1016.1 hPa0.0 mm0.0 mm/h
16.07.2019 - 12.05Uhr23.0 °C15.9 °C64 %796.0 W/m²5.2 km/hNordwesten8.3 km/hNordwesten1016.1 hPa0.0 mm0.0 mm/h
16.07.2019 - 12.10Uhr23.1 °C16.4 °C66 %809.0 W/m²2.2 km/hNordwesten5.8 km/hNordwesten1016.0 hPa0.0 mm0.0 mm/h
16.07.2019 - 12.15Uhr23.7 °C16.8 °C65 %814.0 W/m²2.9 km/hNordwesten8.3 km/hNordwesten1016.0 hPa0.0 mm0.0 mm/h
16.07.2019 - 12.20Uhr23.6 °C15.7 °C61 %823.0 W/m²2.4 km/hNordwesten5.8 km/hNordwesten1016.0 hPa0.0 mm0.0 mm/h
16.07.2019 - 12.25Uhr23.7 °C16.2 °C63 %828.0 W/m²3.9 km/hNordwesten8.3 km/hNordwesten1015.9 hPa0.0 mm0.0 mm/h
16.07.2019 - 12.30Uhr23.8 °C15.9 °C61 %837.0 W/m²3.5 km/hNordwesten8.3 km/hNordwesten1015.9 hPa0.0 mm0.0 mm/h
16.07.2019 - 12.35Uhr23.8 °C15.9 °C62 %842.0 W/m²3.4 km/hNordwesten8.3 km/hNordwesten1015.8 hPa0.0 mm0.0 mm/h
16.07.2019 - 12.40Uhr24.0 °C15.9 °C60 %846.0 W/m²3.6 km/hNordwesten8.3 km/hNordwesten1015.8 hPa0.0 mm0.0 mm/h
16.07.2019 - 12.45Uhr23.9 °C15.4 °C59 %847.0 W/m²4.2 km/hNordwesten8.3 km/hNordwesten1015.8 hPa0.0 mm0.0 mm/h
16.07.2019 - 12.50Uhr24.3 °C16.0 °C60 %847.0 W/m²2.1 km/hNordwesten8.3 km/hNordwesten1015.8 hPa0.0 mm0.0 mm/h
16.07.2019 - 12.55Uhr24.8 °C16.4 °C60 %856.0 W/m²2.0 km/hNordwesten4.0 km/hNordwesten1015.7 hPa0.0 mm0.0 mm/h
16.07.2019 - 13.00Uhr24.8 °C15.8 °C58 %860.0 W/m²4.7 km/hNordwesten8.3 km/hNordwesten1015.7 hPa0.0 mm0.0 mm/h
16.07.2019 - 13.05Uhr24.8 °C16.3 °C59 %865.0 W/m²3.5 km/hNordwesten8.3 km/hNordwesten1015.6 hPa0.0 mm0.0 mm/h
16.07.2019 - 13.10Uhr24.6 °C14.5 °C53 %865.0 W/m²2.5 km/hSüd-SW5.8 km/hSüd-SW1015.5 hPa0.0 mm0.0 mm/h
16.07.2019 - 13.15Uhr24.5 °C15.5 °C57 %868.0 W/m²2.6 km/hSüd-SW8.3 km/hSüd-SW1015.5 hPa0.0 mm0.0 mm/h
16.07.2019 - 13.20Uhr24.4 °C15.5 °C58 %868.0 W/m²3.8 km/hSüd-SW8.3 km/hSüd-SW1015.4 hPa0.0 mm0.0 mm/h
16.07.2019 - 13.25Uhr24.8 °C16.3 °C59 %870.0 W/m²4.6 km/hWesten8.3 km/hWesten1015.3 hPa0.0 mm0.0 mm/h
16.07.2019 - 13.30Uhr25.1 °C16.8 °C60 %872.0 W/m²2.7 km/hWesten5.8 km/hWesten1015.2 hPa0.0 mm0.0 mm/h
16.07.2019 - 13.35Uhr25.3 °C16.5 °C58 %863.0 W/m²1.9 km/hWesten5.8 km/hWesten1015.2 hPa0.0 mm0.0 mm/h
16.07.2019 - 13.40Uhr24.9 °C15.3 °C55 %849.0 W/m²1.1 km/hWesten4.0 km/hWesten1015.2 hPa0.0 mm0.0 mm/h
16.07.2019 - 13.45Uhr25.1 °C16.6 °C59 %865.0 W/m²3.6 km/hWesten8.3 km/hWesten1015.1 hPa0.0 mm0.0 mm/h
16.07.2019 - 13.50Uhr25.5 °C15.8 °C55 %863.0 W/m²6.1 km/hWesten12.2 km/hWesten1015.1 hPa0.0 mm0.0 mm/h
16.07.2019 - 13.55Uhr25.3 °C15.7 °C55 %860.0 W/m²6.5 km/hNord-NW12.2 km/hNord-NW1015.0 hPa0.0 mm0.0 mm/h
16.07.2019 - 14.00Uhr25.3 °C16.0 °C56 %856.0 W/m²2.9 km/hNord-NW5.8 km/hNord-NW1014.9 hPa0.0 mm0.0 mm/h
16.07.2019 - 14.05Uhr25.5 °C16.1 °C56 %895.0 W/m²6.2 km/hWest-NW8.3 km/hWest-NW1014.9 hPa0.0 mm0.0 mm/h
16.07.2019 - 14.10Uhr25.3 °C15.1 °C53 %904.0 W/m²4.7 km/hWesten8.3 km/hWesten1014.9 hPa0.0 mm0.0 mm/h
16.07.2019 - 14.15Uhr25.7 °C16.0 °C55 %888.0 W/m²5.2 km/hWesten8.3 km/hWesten1014.8 hPa0.0 mm0.0 mm/h
16.07.2019 - 14.20Uhr25.8 °C15.6 °C53 %858.0 W/m²4.6 km/hWesten8.3 km/hWesten1014.7 hPa0.0 mm0.0 mm/h
16.07.2019 - 14.25Uhr25.8 °C14.7 °C50 %860.0 W/m²5.1 km/hWesten12.2 km/hWesten1014.7 hPa0.0 mm0.0 mm/h
16.07.2019 - 14.30Uhr25.8 °C15.1 °C52 %863.0 W/m²4.5 km/hWesten8.3 km/hWesten1014.6 hPa0.0 mm0.0 mm/h
16.07.2019 - 14.35Uhr25.9 °C15.4 °C52 %842.0 W/m²3.2 km/hWesten8.3 km/hWesten1014.6 hPa0.0 mm0.0 mm/h
16.07.2019 - 14.40Uhr26.0 °C15.4 °C52 %835.0 W/m²3.5 km/hWesten8.3 km/hWesten1014.6 hPa0.0 mm0.0 mm/h
16.07.2019 - 14.45Uhr25.8 °C14.5 °C50 %828.0 W/m²3.0 km/hOst-NO8.3 km/hWest-NW1014.6 hPa0.0 mm0.0 mm/h
16.07.2019 - 14.50Uhr25.9 °C16.0 °C54 %821.0 W/m²5.3 km/hNordosten8.3 km/hNordosten1014.5 hPa0.0 mm0.0 mm/h
16.07.2019 - 14.55Uhr26.4 °C16.8 °C56 %840.0 W/m²2.3 km/hNordosten5.8 km/hNordosten1014.5 hPa0.0 mm0.0 mm/h
16.07.2019 - 15.00Uhr26.8 °C17.0 °C55 %831.0 W/m²4.8 km/hNordosten12.2 km/hSüden1014.5 hPa0.0 mm0.0 mm/h
16.07.2019 - 15.05Uhr27.0 °C17.2 °C55 %831.0 W/m²4.1 km/hWesten12.2 km/hSüd-SO1014.5 hPa0.0 mm0.0 mm/h
16.07.2019 - 15.10Uhr27.1 °C16.9 °C54 %816.0 W/m²3.7 km/hWesten8.3 km/hWesten1014.5 hPa0.0 mm0.0 mm/h
16.07.2019 - 15.15Uhr26.5 °C15.1 °C50 %803.0 W/m²1.5 km/hWesten5.8 km/hWesten1014.5 hPa0.0 mm0.0 mm/h
16.07.2019 - 15.20Uhr26.2 °C15.5 °C52 %773.0 W/m²1.9 km/hWesten5.8 km/hWesten1014.4 hPa0.0 mm0.0 mm/h
16.07.2019 - 15.25Uhr26.6 °C16.0 °C52 %784.0 W/m²2.8 km/hSüdosten8.3 km/hSüdosten1014.4 hPa0.0 mm0.0 mm/h
16.07.2019 - 15.30Uhr26.7 °C15.4 °C50 %775.0 W/m²1.4 km/hSüdosten4.0 km/hSüdosten1014.4 hPa0.0 mm0.0 mm/h
16.07.2019 - 15.35Uhr26.5 °C15.0 °C49 %777.0 W/m²6.9 km/hWest-SW12.2 km/hWesten1014.3 hPa0.0 mm0.0 mm/h
16.07.2019 - 15.40Uhr26.5 °C14.8 °C49 %772.0 W/m²7.8 km/hWest-NW16.2 km/hWesten1014.3 hPa0.0 mm0.0 mm/h
16.07.2019 - 15.45Uhr27.0 °C15.7 °C50 %770.0 W/m²6.1 km/hWest-NW12.2 km/hWesten1014.2 hPa0.0 mm0.0 mm/h
16.07.2019 - 15.50Uhr27.4 °C15.6 °C49 %744.0 W/m²5.7 km/hWest-NW8.3 km/hWest-NW1014.2 hPa0.0 mm0.0 mm/h
16.07.2019 - 15.55Uhr27.4 °C16.1 °C50 %729.0 W/m²2.5 km/hWest-NW5.8 km/hWest-NW1014.2 hPa0.0 mm0.0 mm/h
16.07.2019 - 16.00Uhr27.6 °C16.2 °C50 %724.0 W/m²3.6 km/hWest-NW8.3 km/hWest-NW1014.1 hPa0.0 mm0.0 mm/h
16.07.2019 - 16.05Uhr27.4 °C15.0 °C47 %714.0 W/m²6.9 km/hWesten16.2 km/hWesten1014.1 hPa0.0 mm0.0 mm/h
16.07.2019 - 16.10Uhr27.2 °C14.9 °C47 %707.0 W/m²6.4 km/hWest-NW14.0 km/hWesten1014.1 hPa0.0 mm0.0 mm/h
16.07.2019 - 16.15Uhr27.1 °C14.6 °C46 %698.0 W/m²6.4 km/hWesten14.0 km/hWesten1014.1 hPa0.0 mm0.0 mm/h
16.07.2019 - 16.20Uhr27.2 °C15.2 °C48 %686.0 W/m²3.0 km/hWesten8.3 km/hWesten1014.1 hPa0.0 mm0.0 mm/h
16.07.2019 - 16.25Uhr27.3 °C14.8 °C46 %679.0 W/m²6.3 km/hWesten12.2 km/hWesten1014.1 hPa0.0 mm0.0 mm/h
16.07.2019 - 16.30Uhr27.4 °C15.2 °C47 %666.0 W/m²4.5 km/hWest-NW8.3 km/hWest-NW1014.1 hPa0.0 mm0.0 mm/h
16.07.2019 - 16.35Uhr27.8 °C15.5 °C47 %652.0 W/m²4.5 km/hWest-NW8.3 km/hWest-NW1014.1 hPa0.0 mm0.0 mm/h
16.07.2019 - 16.40Uhr27.6 °C14.7 °C45 %645.0 W/m²7.0 km/hWesten12.2 km/hWesten1014.0 hPa0.0 mm0.0 mm/h
16.07.2019 - 16.45Uhr27.1 °C14.3 °C45 %631.0 W/m²8.6 km/hWest-NW16.2 km/hWesten1014.0 hPa0.0 mm0.0 mm/h
16.07.2019 - 16.50Uhr27.0 °C13.6 °C44 %617.0 W/m²9.3 km/hWesten16.2 km/hWesten1013.9 hPa0.0 mm0.0 mm/h
16.07.2019 - 16.55Uhr27.0 °C14.7 °C47 %610.0 W/m²5.3 km/hWesten8.3 km/hSüdwesten1013.9 hPa0.0 mm0.0 mm/h
16.07.2019 - 17.00Uhr27.3 °C14.8 °C46 %598.0 W/m²6.6 km/hWest-SW8.3 km/hWest-SW1013.9 hPa0.0 mm0.0 mm/h
16.07.2019 - 17.05Uhr27.5 °C14.1 °C44 %589.0 W/m²5.4 km/hWesten12.2 km/hWesten1013.8 hPa0.0 mm0.0 mm/h
16.07.2019 - 17.10Uhr27.3 °C14.4 °C45 %573.0 W/m²5.7 km/hWesten12.2 km/hWest-SW1013.8 hPa0.0 mm0.0 mm/h
16.07.2019 - 17.15Uhr27.8 °C15.4 °C47 %564.0 W/m²4.8 km/hWesten14.0 km/hWesten1013.7 hPa0.0 mm0.0 mm/h
16.07.2019 - 17.20Uhr27.8 °C13.0 °C40 %550.0 W/m²10.6 km/hWest-NW18.0 km/hWesten1013.7 hPa0.0 mm0.0 mm/h
16.07.2019 - 17.25Uhr27.4 °C13.5 °C42 %536.0 W/m²7.4 km/hWest-NW12.2 km/hWesten1013.7 hPa0.0 mm0.0 mm/h
16.07.2019 - 17.30Uhr27.3 °C12.8 °C41 %527.0 W/m²9.3 km/hWesten16.2 km/hWesten1013.7 hPa0.0 mm0.0 mm/h
16.07.2019 - 17.35Uhr27.2 °C13.1 °C42 %522.0 W/m²6.1 km/hWesten12.2 km/hWesten1013.7 hPa0.0 mm0.0 mm/h
16.07.2019 - 17.40Uhr27.2 °C13.1 °C42 %503.0 W/m²6.2 km/hWest-NW16.2 km/hSüdwesten1013.7 hPa0.0 mm0.0 mm/h
16.07.2019 - 17.45Uhr27.4 °C13.6 °C42 %499.0 W/m²10.1 km/hWesten18.0 km/hWesten1013.7 hPa0.0 mm0.0 mm/h
16.07.2019 - 17.50Uhr27.3 °C13.9 °C44 %482.0 W/m²8.2 km/hWest-NW14.0 km/hWesten1013.6 hPa0.0 mm0.0 mm/h
16.07.2019 - 17.55Uhr27.3 °C13.2 °C42 %473.0 W/m²10.1 km/hWesten14.0 km/hWesten1013.6 hPa0.0 mm0.0 mm/h
16.07.2019 - 18.00Uhr27.3 °C13.4 °C42 %457.0 W/m²5.8 km/hWesten12.2 km/hWesten1013.6 hPa0.0 mm0.0 mm/h
16.07.2019 - 18.05Uhr27.5 °C14.0 °C44 %448.0 W/m²4.7 km/hWest-SW8.3 km/hWest-SW1013.6 hPa0.0 mm0.0 mm/h
16.07.2019 - 18.10Uhr27.7 °C14.2 °C44 %429.0 W/m²6.0 km/hWest-SW12.2 km/hWesten1013.6 hPa0.0 mm0.0 mm/h
16.07.2019 - 18.15Uhr27.9 °C14.0 °C42 %418.0 W/m²6.6 km/hWesten14.0 km/hWest-SW1013.5 hPa0.0 mm0.0 mm/h
16.07.2019 - 18.20Uhr27.8 °C13.3 °C41 %403.0 W/m²6.2 km/hWesten12.2 km/hWesten1013.5 hPa0.0 mm0.0 mm/h
16.07.2019 - 18.25Uhr27.7 °C13.6 °C42 %396.0 W/m²6.0 km/hWesten12.2 km/hSüdwesten1013.5 hPa0.0 mm0.0 mm/h
16.07.2019 - 18.30Uhr27.6 °C13.4 °C42 %383.0 W/m²6.8 km/hWesten12.2 km/hWesten1013.5 hPa0.0 mm0.0 mm/h
16.07.2019 - 18.35Uhr27.6 °C13.1 °C41 %367.0 W/m²5.9 km/hWesten10.1 km/hWesten1013.5 hPa0.0 mm0.0 mm/h
16.07.2019 - 18.40Uhr27.5 °C13.0 °C41 %353.0 W/m²6.1 km/hNordwesten8.3 km/hNordwesten1013.5 hPa0.0 mm0.0 mm/h
16.07.2019 - 18.45Uhr27.3 °C12.8 °C41 %339.0 W/m²5.5 km/hWest-NW12.2 km/hWest-NW1013.5 hPa0.0 mm0.0 mm/h
16.07.2019 - 18.50Uhr27.5 °C13.3 °C42 %325.0 W/m²5.4 km/hWest-NW8.3 km/hWest-NW1013.5 hPa0.0 mm0.0 mm/h
16.07.2019 - 18.55Uhr27.5 °C13.0 °C41 %306.0 W/m²5.8 km/hWest-NW8.3 km/hWest-NW1013.5 hPa0.0 mm0.0 mm/h
16.07.2019 - 19.00Uhr27.4 °C12.8 °C40 %295.0 W/m²8.4 km/hWest-NW16.2 km/hWesten1013.5 hPa0.0 mm0.0 mm/h
16.07.2019 - 19.05Uhr27.2 °C13.2 °C42 %285.0 W/m²6.6 km/hWesten16.2 km/hWesten1013.5 hPa0.0 mm0.0 mm/h
16.07.2019 - 19.10Uhr27.0 °C12.8 °C42 %258.0 W/m²7.5 km/hWesten12.2 km/hWesten1013.5 hPa0.0 mm0.0 mm/h
16.07.2019 - 19.15Uhr27.1 °C14.1 °C45 %257.0 W/m²5.3 km/hWesten8.3 km/hWesten1013.5 hPa0.0 mm0.0 mm/h
16.07.2019 - 19.20Uhr27.2 °C13.3 °C42 %241.0 W/m²8.1 km/hWesten16.2 km/hWesten1013.5 hPa0.0 mm0.0 mm/h
16.07.2019 - 19.25Uhr26.9 °C13.7 °C44 %225.0 W/m²5.0 km/hWesten8.3 km/hWesten1013.5 hPa0.0 mm0.0 mm/h
16.07.2019 - 19.30Uhr26.8 °C13.6 °C44 %176.0 W/m²5.4 km/hWesten8.3 km/hWesten1013.4 hPa0.0 mm0.0 mm/h
16.07.2019 - 19.35Uhr26.5 °C13.6 °C45 %169.0 W/m²5.0 km/hWesten8.3 km/hWest-SW1013.5 hPa0.0 mm0.0 mm/h
16.07.2019 - 19.40Uhr26.3 °C13.5 °C45 %171.0 W/m²5.6 km/hWesten8.3 km/hWesten1013.4 hPa0.0 mm0.0 mm/h
16.07.2019 - 19.45Uhr26.2 °C13.2 °C45 %144.0 W/m²5.7 km/hWesten8.3 km/hWesten1013.4 hPa0.0 mm0.0 mm/h
16.07.2019 - 19.50Uhr25.7 °C13.6 °C47 %116.0 W/m²4.4 km/hWesten8.3 km/hWesten1013.4 hPa0.0 mm0.0 mm/h
16.07.2019 - 19.55Uhr25.4 °C13.9 °C49 %88.0 W/m²2.4 km/hWesten5.8 km/hWesten1013.4 hPa0.0 mm0.0 mm/h
16.07.2019 - 20.00Uhr25.0 °C14.1 °C51 %49.0 W/m²1.7 km/hWesten5.8 km/hWesten1013.4 hPa0.0 mm0.0 mm/h
16.07.2019 - 20.05Uhr24.4 °C13.5 °C51 %51.0 W/m²2.0 km/hWesten5.8 km/hWesten1013.4 hPa0.0 mm0.0 mm/h
16.07.2019 - 20.10Uhr24.2 °C13.0 °C50 %65.0 W/m²2.8 km/hWesten8.3 km/hWesten1013.4 hPa0.0 mm0.0 mm/h
16.07.2019 - 20.15Uhr24.3 °C13.4 °C51 %84.0 W/m²2.2 km/hWesten5.8 km/hWesten1013.4 hPa0.0 mm0.0 mm/h
16.07.2019 - 20.20Uhr24.4 °C13.7 °C51 %84.0 W/m²1.8 km/hWesten8.3 km/hWesten1013.5 hPa0.0 mm0.0 mm/h
16.07.2019 - 20.25Uhr24.4 °C13.5 °C51 %74.0 W/m²2.8 km/hWesten5.8 km/hWesten1013.5 hPa0.0 mm0.0 mm/h
16.07.2019 - 20.30Uhr23.7 °C14.1 °C55 %39.0 W/m²1.8 km/hWesten5.8 km/hWesten1013.5 hPa0.0 mm0.0 mm/h
16.07.2019 - 20.35Uhr23.3 °C12.8 °C52 %30.0 W/m²1.5 km/hWesten4.0 km/hWesten1013.5 hPa0.0 mm0.0 mm/h
16.07.2019 - 20.40Uhr23.4 °C12.7 °C51 %26.0 W/m²1.2 km/hWesten4.0 km/hWesten1013.4 hPa0.0 mm0.0 mm/h
16.07.2019 - 20.45Uhr23.3 °C12.6 °C51 %25.0 W/m²2.2 km/hWesten5.8 km/hWesten1013.5 hPa0.0 mm0.0 mm/h
16.07.2019 - 20.50Uhr23.2 °C12.5 °C51 %21.0 W/m²3.7 km/hWesten8.3 km/hWesten1013.5 hPa0.0 mm0.0 mm/h
16.07.2019 - 20.55Uhr23.0 °C12.6 °C52 %18.0 W/m²2.4 km/hWesten5.8 km/hWesten1013.6 hPa0.0 mm0.0 mm/h
16.07.2019 - 21.00Uhr23.1 °C12.6 °C52 %14.0 W/m²0.5 km/hWesten1.8 km/hWesten1013.7 hPa0.0 mm0.0 mm/h
16.07.2019 - 21.05Uhr22.3 °C13.3 °C57 %12.0 W/m²3.0 km/hWesten5.8 km/hWesten1013.6 hPa0.0 mm0.0 mm/h
16.07.2019 - 21.10Uhr21.6 °C13.4 °C60 %9.0 W/m²2.8 km/hWesten5.8 km/hWesten1013.6 hPa0.0 mm0.0 mm/h
16.07.2019 - 21.15Uhr21.3 °C13.4 °C61 %5.0 W/m²2.1 km/hWesten4.0 km/hWesten1013.7 hPa0.0 mm0.0 mm/h
16.07.2019 - 21.20Uhr21.2 °C13.4 °C61 %0.0 W/m²1.4 km/hWesten5.8 km/hWesten1013.7 hPa0.0 mm0.0 mm/h
16.07.2019 - 21.25Uhr21.1 °C13.8 °C63 %0.0 W/m²3.2 km/hWesten8.3 km/hSüd-SO1013.7 hPa0.0 mm0.0 mm/h
16.07.2019 - 21.30Uhr20.5 °C13.9 °C66 %0.0 W/m²6.3 km/hSüd-SO8.3 km/hSüd-SO1013.8 hPa0.0 mm0.0 mm/h
16.07.2019 - 21.35Uhr20.0 °C13.8 °C68 %0.0 W/m²5.9 km/hSüd-SO8.3 km/hSüd-SO1013.9 hPa0.0 mm0.0 mm/h
16.07.2019 - 21.40Uhr19.8 °C13.6 °C67 %0.0 W/m²3.2 km/hSüd-SO8.3 km/hSüd-SO1013.9 hPa0.0 mm0.0 mm/h
16.07.2019 - 21.45Uhr20.0 °C13.7 °C67 %0.0 W/m²2.7 km/hSüd-SO8.3 km/hSüd-SO1014.0 hPa0.0 mm0.0 mm/h
16.07.2019 - 21.50Uhr19.8 °C13.7 °C68 %0.0 W/m²2.8 km/hSüd-SO8.3 km/hSüd-SO1014.0 hPa0.0 mm0.0 mm/h
16.07.2019 - 21.55Uhr19.2 °C13.7 °C70 %0.0 W/m²2.7 km/hSüd-SO8.3 km/hSüd-SO1014.1 hPa0.0 mm0.0 mm/h
16.07.2019 - 22.00Uhr18.7 °C13.5 °C72 %0.0 W/m²3.7 km/hSüd-SO8.3 km/hSüd-SO1014.1 hPa0.0 mm0.0 mm/h
16.07.2019 - 22.05Uhr18.4 °C13.4 °C72 %0.0 W/m²4.6 km/hSüd-SO8.3 km/hSüd-SO1014.2 hPa0.0 mm0.0 mm/h
16.07.2019 - 22.10Uhr18.3 °C13.4 °C73 %0.0 W/m²4.7 km/hSüd-SO8.3 km/hSüd-SO1014.2 hPa0.0 mm0.0 mm/h
16.07.2019 - 22.15Uhr18.4 °C13.3 °C72 %0.0 W/m²4.8 km/hSüd-SO8.3 km/hSüd-SO1014.2 hPa0.0 mm0.0 mm/h
16.07.2019 - 22.20Uhr18.8 °C13.3 °C70 %0.0 W/m²3.2 km/hSüd-SO8.3 km/hSüd-SO1014.2 hPa0.0 mm0.0 mm/h
16.07.2019 - 22.25Uhr18.6 °C13.1 °C71 %0.0 W/m²5.8 km/hSüd-SO8.3 km/hSüdosten1014.2 hPa0.0 mm0.0 mm/h
16.07.2019 - 22.30Uhr18.2 °C13.2 °C72 %0.0 W/m²5.0 km/hSüdosten8.3 km/hSüdosten1014.2 hPa0.0 mm0.0 mm/h
16.07.2019 - 22.35Uhr18.1 °C13.1 °C73 %0.0 W/m²3.7 km/hSüdosten8.3 km/hSüdosten1014.2 hPa0.0 mm0.0 mm/h
16.07.2019 - 22.40Uhr18.1 °C13.0 °C72 %0.0 W/m²4.8 km/hSüdosten8.3 km/hSüdosten1014.2 hPa0.0 mm0.0 mm/h
16.07.2019 - 22.45Uhr17.8 °C12.9 °C73 %0.0 W/m²4.3 km/hSüdosten8.3 km/hSüdosten1014.3 hPa0.0 mm0.0 mm/h
16.07.2019 - 22.50Uhr17.6 °C12.9 °C74 %0.0 W/m²0.8 km/hSüdosten4.0 km/hSüdosten1014.3 hPa0.0 mm0.0 mm/h
16.07.2019 - 22.55Uhr17.4 °C12.8 °C75 %0.0 W/m²0.8 km/hSüdosten1.8 km/hSüdosten1014.3 hPa0.0 mm0.0 mm/h
16.07.2019 - 23.00Uhr17.2 °C12.7 °C75 %0.0 W/m²0.8 km/hSüdosten1.8 km/hSüdosten1014.3 hPa0.0 mm0.0 mm/h
16.07.2019 - 23.05Uhr17.0 °C12.4 °C75 %0.0 W/m²3.3 km/hSüdosten8.3 km/hSüdosten1014.3 hPa0.0 mm0.0 mm/h
16.07.2019 - 23.10Uhr17.1 °C12.5 °C74 %0.0 W/m²3.7 km/hSüdosten8.3 km/hSüdosten1014.4 hPa0.0 mm0.0 mm/h